Terminal Aerodrome Forecast
Issued by NWS

Home | Current Version | Previous Version | Text Only | Print | Product List | Glossary On
Versions: 1 2 3 4 5 6 7 8 9 10 11 12 13 14
000
FTUS43 KGRB 051700
TAFAUW
TAF
KAUW 051725Z 0518/0618 12015KT P6SM SCT070 BKN150
     FM060300 10005KT P6SM SCT040 OVC070
     FM060500 11005KT P6SM SCT020 OVC035
     FM060800 11006KT P6SM BKN012 OVC020 PROB30 0608/0614 -SHRA
     FM061400 13008KT P6SM VCSH SCT018 OVC025=

USA.gov is the U.S. government's official web portal to all federal, state and local government web resources and services.